Time;durP1;ratioP1;P1;durP2;ratioP2;P2;SDS_P1;SDS_P2;PMS_P1;PMS_P2;Temp;Humidity;BMP_temperature;BMP_pressure;BME280_temperature;BME280_humidity;BME280_pressure;Samples;Min_cycle;Max_cycle;Signal;HPM_P1;HPM_P2
2023/01/15 00:01:33;;;;;;;7.85;0.40;;;;;;;5.03;100.00;97710.50;7389727;19;20022;-83
2023/01/15 00:04:02;;;;;;;0.10;0.10;;;;;;;5.50;100.00;97712.56;7389863;19;20481;-83
2023/01/15 00:06:29;;;;;;;0.10;0.10;;;;;;;5.43;100.00;97710.28;7389762;19;20458;-83
2023/01/15 00:08:55;;;;;;;0.10;0.10;;;;;;;5.02;100.00;97720.03;7387558;19;20389;-83
2023/01/15 00:11:22;;;;;;;0.20;0.20;;;;;;;5.02;100.00;97726.31;7387591;19;20049;-85
2023/01/15 00:13:49;;;;;;;0.30;0.10;;;;;;;4.68;100.00;97730.00;7391674;19;20382;-84
2023/01/15 00:16:21;;;;;;;0.10;0.10;;;;;;;4.27;100.00;97726.59;7395989;19;20022;-85
2023/01/15 00:18:51;;;;;;;1.27;0.63;;;;;;;4.39;100.00;97720.00;7392343;19;20114;-85
2023/01/15 00:21:19;;;;;;;0.22;0.22;;;;;;;4.57;100.00;97716.13;7390508;19;20028;-83
2023/01/15 00:29:18;;;;;;;0.20;0.13;;;;;;;4.54;100.00;97728.91;7388951;19;20018;-83
2023/01/15 00:31:55;;;;;;;0.10;0.10;;;;;;;4.38;100.00;97732.22;7386248;19;20014;-82
2023/01/15 00:34:26;;;;;;;0.20;0.13;;;;;;;4.49;100.00;97735.09;7390738;19;20026;-83
2023/01/15 00:36:52;;;;;;;4.20;0.85;;;;;;;4.16;100.00;97731.25;7393167;19;20086;-83
2023/01/15 00:39:19;;;;;;;0.22;0.17;;;;;;;3.81;100.00;97739.59;7385466;19;20022;-83
2023/01/15 00:41:46;;;;;;;0.10;0.10;;;;;;;3.76;100.00;97737.53;7387120;19;20019;-82
2023/01/15 00:44:13;;;;;;;3.30;1.33;;;;;;;3.75;100.00;97733.25;7385920;19;20028;-82
2023/01/15 00:46:39;;;;;;;1.55;0.40;;;;;;;4.69;100.00;97733.53;7390772;19;20516;-83
2023/01/15 00:49:05;;;;;;;1.08;0.35;;;;;;;3.88;100.00;97730.91;7389679;19;20019;-82
2023/01/15 00:51:31;;;;;;;0.55;0.55;;;;;;;3.64;100.00;97724.84;7386641;19;20022;-82
2023/01/15 00:53:57;;;;;;;0.40;0.20;;;;;;;4.12;100.00;97717.69;7387984;19;20018;-82
2023/01/15 00:56:24;;;;;;;0.10;0.10;;;;;;;4.51;100.00;97707.81;7391631;19;20018;-82
2023/01/15 00:58:50;;;;;;;0.10;0.10;;;;;;;3.19;100.00;97714.44;7387819;19;20081;-82
2023/01/15 01:01:16;;;;;;;0.10;0.10;;;;;;;2.57;100.00;97701.75;7385494;19;20140;-82
2023/01/15 01:03:47;;;;;;;0.10;0.10;;;;;;;2.35;100.00;97708.84;7385267;19;20013;-82
2023/01/15 01:06:15;;;;;;;0.75;0.75;;;;;;;4.15;100.00;97699.44;7388310;19;20018;-82
2023/01/15 01:08:44;;;;;;;0.22;0.22;;;;;;;4.46;100.00;97702.25;7387247;19;20006;-82
2023/01/15 01:11:18;;;;;;;0.28;0.28;;;;;;;4.60;100.00;97707.66;7386323;19;20548;-83
2023/01/15 01:13:45;;;;;;;0.10;0.10;;;;;;;4.67;100.00;97695.44;7385294;19;20515;-81
2023/01/15 01:16:38;;;;;;;0.20;0.20;;;;;;;4.51;100.00;97699.56;7389996;19;20473;-82
2023/01/15 01:19:12;;;;;;;0.10;0.10;;;;;;;4.23;100.00;97700.50;7384880;19;20014;-83
2023/01/15 01:21:41;;;;;;;0.17;0.08;;;;;;;4.70;100.00;97696.47;7385496;19;20347;-83
2023/01/15 01:24:10;;;;;;;3.80;0.30;;;;;;;5.36;100.00;97688.66;7386743;19;20026;-83
2023/01/15 01:26:37;;;;;;;7.15;0.35;;;;;;;4.57;100.00;97694.84;7389955;19;20018;-82
2023/01/15 01:29:03;;;;;;;0.10;0.10;;;;;;;4.23;100.00;97700.50;7385911;19;20015;-82
2023/01/15 01:31:29;;;;;;;1.67;0.20;;;;;;;3.82;100.00;97694.28;7384787;19;20031;-83
2023/01/15 01:33:57;;;;;;;1.05;0.52;;;;;;;3.44;100.00;97692.59;7388869;19;20013;-83
2023/01/15 01:36:27;;;;;;;0.25;0.25;;;;;;;3.47;100.00;97677.09;7388991;19;20832;-83
2023/01/15 01:38:54;;;;;;;0.10;0.00;;;;;;;3.12;100.00;97659.88;7385374;19;20637;-83
2023/01/15 01:41:20;;;;;;;0.10;0.10;;;;;;;3.68;100.00;97660.09;7385385;19;20010;-83
2023/01/15 01:44:03;;;;;;;0.10;0.10;;;;;;;3.38;100.00;97649.72;7385712;19;20018;-83
2023/01/15 01:46:32;;;;;;;0.45;0.10;;;;;;;3.41;100.00;97651.50;7387993;19;20018;-84
2023/01/15 01:49:07;;;;;;;1.08;0.47;;;;;;;3.73;100.00;97664.16;7385461;19;20010;-83
2023/01/15 01:51:38;;;;;;;0.80;0.63;;;;;;;6.37;100.00;97662.94;7387141;19;20079;-83
2023/01/15 01:54:07;;;;;;;0.10;0.10;;;;;;;5.34;100.00;97647.00;7385370;19;20039;-83
2023/01/15 01:56:34;;;;;;;0.10;0.10;;;;;;;6.84;100.00;97650.94;7390240;19;20039;-83
2023/01/15 01:59:03;;;;;;;1.17;0.68;;;;;;;5.06;100.00;97648.84;7387938;19;20011;-83
2023/01/15 02:01:29;;;;;;;0.75;0.30;;;;;;;5.46;100.00;97643.03;7386982;19;20006;-83
2023/01/15 02:03:56;;;;;;;0.30;0.30;;;;;;;6.12;100.00;97653.63;7387559;19;20018;-83
2023/01/15 02:06:25;;;;;;;0.10;0.10;;;;;;;6.36;100.00;97648.38;7388536;19;20011;-83
2023/01/15 02:08:52;;;;;;;0.10;0.10;;;;;;;6.59;100.00;97641.63;7390237;19;20020;-84
2023/01/15 02:11:21;;;;;;;1.85;0.10;;;;;;;7.01;100.00;97643.38;7392428;19;20018;-83
2023/01/15 02:13:56;;;;;;;0.10;0.10;;;;;;;5.67;100.00;97638.88;7390512;19;20105;-83
2023/01/15 02:16:30;;;;;;;0.10;0.10;;;;;;;6.35;100.00;97633.03;7395733;19;20015;-83
2023/01/15 02:19:06;;;;;;;0.10;0.10;;;;;;;7.62;100.00;97623.84;7392930;19;20370;-83
2023/01/15 02:21:54;;;;;;;0.57;0.35;;;;;;;8.58;100.00;97628.31;7391509;19;20698;-83
2023/01/15 02:24:32;;;;;;;0.10;0.10;;;;;;;6.53;100.00;97617.97;7390198;19;20011;-83
2023/01/15 02:27:08;;;;;;;0.10;0.00;;;;;;;6.79;100.00;97605.41;7396396;19;20490;-83
2023/01/15 02:29:48;;;;;;;0.10;0.10;;;;;;;6.55;100.00;97598.88;7393204;19;20816;-84
2023/01/15 02:32:30;;;;;;;0.20;0.20;;;;;;;6.28;100.00;97594.84;7390290;19;20021;-83
2023/01/15 02:35:00;;;;;;;7.85;0.57;;;;;;;6.41;100.00;97586.81;7392941;19;20412;-83
2023/01/15 02:37:32;;;;;;;3.30;0.57;;;;;;;6.35;100.00;97590.81;7391380;19;20469;-83
2023/01/15 02:40:02;;;;;;;0.27;0.27;;;;;;;6.09;100.00;97593.81;7397612;19;20022;-83
2023/01/15 02:42:33;;;;;;;11.50;0.75;;;;;;;6.07;100.00;97574.97;7391270;19;20021;-83
2023/01/15 02:45:02;;;;;;;0.25;0.25;;;;;;;6.21;100.00;97578.00;7391675;19;20095;-84
2023/01/15 02:47:34;;;;;;;0.10;0.10;;;;;;;6.26;100.00;97572.47;7392305;19;20015;-83
2023/01/15 02:50:07;;;;;;;0.10;0.10;;;;;;;6.15;100.00;97572.47;7389936;19;20018;-83
2023/01/15 02:52:45;;;;;;;1.35;0.10;;;;;;;8.48;100.00;97553.03;7388247;19;20043;-83
2023/01/15 02:55:45;;;;;;;0.10;0.10;;;;;;;6.58;100.00;97550.88;7388414;19;20022;-81
2023/01/15 02:58:16;;;;;;;0.10;0.10;;;;;;;9.46;100.00;97532.31;7389532;19;20021;-83
2023/01/15 03:00:50;;;;;;;0.28;0.28;;;;;;;13.53;96.46;97523.69;7388366;19;20021;-83
2023/01/15 03:03:41;;;;;;;0.10;0.10;;;;;;;10.51;100.00;97523.19;7390136;19;20025;-84
2023/01/15 03:06:16;;;;;;;1.65;1.30;;;;;;;14.88;84.54;97508.47;7393974;19;20473;-83
2023/01/15 03:08:45;;;;;;;0.10;0.10;;;;;;;6.50;100.00;97531.25;7391084;19;20030;-84
2023/01/15 03:11:14;;;;;;;0.10;0.10;;;;;;;6.07;100.00;97519.72;7390772;19;20025;-83
2023/01/15 03:14:00;;;;;;;0.10;0.10;;;;;;;5.73;100.00;97529.22;7388453;19;20501;-83
2023/01/15 03:16:37;;;;;;;1.13;0.20;;;;;;;5.41;100.00;97522.34;7393166;19;20051;-83
2023/01/15 03:19:26;;;;;;;0.57;0.40;;;;;;;5.36;100.00;97521.09;7387612;19;20057;-83
2023/01/15 03:22:22;;;;;;;0.10;0.10;;;;;;;4.82;100.00;97527.88;7390000;19;20367;-83
2023/01/15 03:24:56;;;;;;;0.20;0.20;;;;;;;4.83;100.00;97525.88;7388941;19;20026;-83
2023/01/15 03:27:23;;;;;;;0.10;0.10;;;;;;;4.92;100.00;97533.91;7390680;19;20047;-83
2023/01/15 03:30:00;;;;;;;0.10;0.10;;;;;;;5.33;100.00;97532.34;7392075;19;20024;-84
2023/01/15 03:32:28;;;;;;;0.45;0.38;;;;;;;5.56;100.00;97533.94;7389242;19;20028;-83
2023/01/15 03:34:55;;;;;;;0.20;0.20;;;;;;;5.71;100.00;97537.25;7386131;19;20018;-83
2023/01/15 03:37:26;;;;;;;0.20;0.20;;;;;;;5.16;100.00;97526.00;7389909;19;20007;-83
2023/01/15 03:39:55;;;;;;;0.10;0.10;;;;;;;5.78;100.00;97527.72;7390065;19;20022;-83
2023/01/15 03:42:32;;;;;;;0.28;0.20;;;;;;;5.75;100.00;97520.41;7390027;19;20011;-84
2023/01/15 03:45:07;;;;;;;0.10;0.10;;;;;;;6.13;100.00;97516.22;7390940;19;20011;-83
2023/01/15 03:48:11;;;;;;;0.10;0.10;;;;;;;5.67;100.00;97520.16;7389728;19;20484;-83
2023/01/15 03:50:42;;;;;;;0.10;0.10;;;;;;;6.06;100.00;97518.22;7389968;19;20469;-83
2023/01/15 03:53:29;;;;;;;;;;;;;;;6.44;100.00;97513.19;7387653;19;20029;-83
2023/01/15 03:56:14;;;;;;;0.10;0.10;;;;;;;6.45;100.00;97495.34;7392216;19;19919;-83
2023/01/15 03:58:51;;;;;;;0.10;0.10;;;;;;;5.63;100.00;97496.81;7387675;19;20026;-83
2023/01/15 04:01:30;;;;;;;0.20;0.20;;;;;;;5.75;100.00;97501.84;7387458;19;20109;-83
2023/01/15 04:03:59;;;;;;;0.10;0.10;;;;;;;5.91;100.00;97495.59;7390405;19;20438;-82
2023/01/15 04:06:31;;;;;;;0.10;0.10;;;;;;;6.02;100.00;97492.13;7393191;19;20015;-83
2023/01/15 04:08:59;;;;;;;0.10;0.10;;;;;;;6.03;100.00;97480.56;7389850;19;20484;-84
2023/01/15 04:11:26;;;;;;;7.85;0.40;;;;;;;6.00;100.00;97473.25;7387325;19;20019;-83
2023/01/15 04:13:59;;;;;;;0.10;0.10;;;;;;;5.65;100.00;97478.47;7387661;19;20026;-83
2023/01/15 04:16:52;;;;;;;0.10;0.10;;;;;;;5.64;100.00;97481.75;7394033;19;20374;-82
2023/01/15 04:19:22;;;;;;;8.43;0.40;;;;;;;5.83;100.00;97478.00;7388563;19;20014;-83
2023/01/15 04:22:00;;;;;;;0.20;0.20;;;;;;;5.92;100.00;97469.50;7388895;19;20026;-83
2023/01/15 04:24:26;;;;;;;0.30;0.30;;;;;;;6.96;100.00;97458.75;7388769;19;20045;-83
2023/01/15 04:26:52;;;;;;;0.10;0.10;;;;;;;8.96;100.00;97428.16;7394491;19;20018;-83
2023/01/15 04:29:18;;;;;;;0.10;0.10;;;;;;;7.16;100.00;97447.34;7388956;19;20015;-83
2023/01/15 04:31:44;;;;;;;0.10;0.10;;;;;;;6.20;100.00;97438.31;7388656;19;20664;-83
2023/01/15 04:34:11;;;;;;;0.10;0.10;;;;;;;5.81;100.00;97441.09;7391768;19;20049;-83
2023/01/15 04:36:37;;;;;;;0.40;0.28;;;;;;;5.94;100.00;97436.59;7393868;19;20014;-83
2023/01/15 04:39:04;;;;;;;0.38;0.30;;;;;;;4.59;100.00;97441.53;7390139;19;20038;-83
2023/01/15 04:44:16;;;;;;;0.10;0.10;;;;;;;4.74;100.00;97438.59;7390010;19;20025;-83
2023/01/15 04:46:44;;;;;;;0.10;0.00;;;;;;;4.94;100.00;97437.66;7392966;19;20771;-83
2023/01/15 04:49:13;;;;;;;0.10;0.10;;;;;;;5.12;100.00;97431.72;7386289;19;20018;-83
2023/01/15 04:51:40;;;;;;;0.90;0.25;;;;;;;4.88;100.00;97423.09;7388586;19;20029;-84
2023/01/15 04:54:09;;;;;;;0.10;0.10;;;;;;;4.87;100.00;97421.63;7389123;19;20010;-83
2023/01/15 04:56:44;;;;;;;0.17;0.17;;;;;;;5.07;100.00;97416.66;7394336;19;20029;-83
2023/01/15 04:59:11;;;;;;;0.10;0.10;;;;;;;5.45;100.00;97412.47;7388806;19;20033;-83
2023/01/15 05:01:37;;;;;;;0.10;0.10;;;;;;;5.43;100.00;97417.72;7389750;19;20469;-83
2023/01/15 05:04:04;;;;;;;0.10;0.10;;;;;;;5.50;100.00;97416.50;7390319;19;20772;-83
2023/01/15 05:06:30;;;;;;;0.10;0.10;;;;;;;5.59;100.00;97425.25;7391955;19;20018;-83
2023/01/15 05:08:58;;;;;;;7.45;0.90;;;;;;;5.58;100.00;97429.28;7388918;19;20527;-82
2023/01/15 05:11:24;;;;;;;0.10;0.10;;;;;;;5.63;100.00;97436.81;7386347;19;20035;-83
2023/01/15 05:13:50;;;;;;;0.30;0.30;;;;;;;5.71;100.00;97426.78;7387996;19;20022;-83
2023/01/15 05:16:19;;;;;;;0.10;0.00;;;;;;;5.63;100.00;97419.50;7390198;19;20022;-83
2023/01/15 05:18:46;;;;;;;0.10;0.10;;;;;;;5.87;100.00;97415.00;7386807;19;20022;-81
2023/01/15 05:21:20;;;;;;;0.20;0.20;;;;;;;5.80;100.00;97418.25;7384546;19;20019;-83
2023/01/15 05:23:49;;;;;;;0.10;0.10;;;;;;;5.88;100.00;97419.28;7385989;19;20014;-83
2023/01/15 05:26:15;;;;;;;0.10;0.10;;;;;;;5.84;100.00;97429.84;7389919;19;20021;-83
2023/01/15 05:28:42;;;;;;;1.17;0.57;;;;;;;5.80;100.00;97445.88;7385198;19;20018;-83
2023/01/15 05:31:10;;;;;;;0.10;0.10;;;;;;;5.78;100.00;97431.06;7386783;19;20074;-83
2023/01/15 05:33:37;;;;;;;0.10;0.10;;;;;;;5.94;100.00;97428.31;7388500;19;20015;-83
2023/01/15 05:36:07;;;;;;;0.10;0.10;;;;;;;5.97;100.00;97432.84;7390678;19;20043;-83
2023/01/15 05:38:33;;;;;;;0.10;0.10;;;;;;;6.08;100.00;97432.84;7385657;19;20018;-83
2023/01/15 05:41:47;;;;;;;0.10;0.10;;;;;;;6.17;100.00;97439.34;7386430;19;20022;-83
2023/01/15 05:43:50;;;;;;;0.10;0.10;;;;;;;6.13;100.00;97422.28;7388893;19;20480;-83
2023/01/15 05:46:17;;;;;;;3.95;0.98;;;;;;;6.21;100.00;97420.50;7396696;19;20092;-82
2023/01/15 05:48:43;;;;;;;0.63;0.45;;;;;;;6.32;100.00;97428.78;7393802;19;20516;-83
2023/01/15 05:51:09;;;;;;;0.10;0.10;;;;;;;6.38;100.00;97433.03;7394193;19;20019;-83
2023/01/15 05:53:35;;;;;;;0.30;0.20;;;;;;;6.36;100.00;97423.72;7390608;19;20046;-84
2023/01/15 05:56:02;;;;;;;3.30;0.57;;;;;;;6.42;100.00;97424.47;7395148;19;20384;-83
2023/01/15 05:58:28;;;;;;;0.10;0.10;;;;;;;6.21;100.00;97428.78;7391980;19;20015;-82
2023/01/15 06:00:54;;;;;;;0.47;0.22;;;;;;;6.34;100.00;97426.25;7393275;19;20018;-82
2023/01/15 06:03:22;;;;;;;3.03;0.30;;;;;;;6.36;100.00;97423.72;7395456;19;20018;-83
2023/01/15 06:05:52;;;;;;;0.10;0.10;;;;;;;6.40;100.00;97424.22;7395778;19;20018;-83
2023/01/15 06:08:19;;;;;;;0.40;0.40;;;;;;;6.37;100.00;97425.97;7395239;19;20027;-82
2023/01/15 06:10:46;;;;;;;0.10;0.00;;;;;;;6.48;100.00;97425.97;7394668;19;20022;-83
2023/01/15 06:13:14;;;;;;;0.10;0.10;;;;;;;6.48;100.00;97419.66;7391216;19;20112;-83
2023/01/15 06:15:40;;;;;;;0.10;0.00;;;;;;;6.49;100.00;97416.41;7391341;19;20397;-83
2023/01/15 06:18:07;;;;;;;0.10;0.00;;;;;;;6.53;100.00;97416.16;7390496;19;20019;-82
2023/01/15 06:20:37;;;;;;;0.10;0.00;;;;;;;6.61;100.00;97425.41;7391719;19;20014;-83
2023/01/15 06:23:04;;;;;;;0.10;0.10;;;;;;;6.75;100.00;97432.66;7389554;19;20014;-83
2023/01/15 06:25:35;;;;;;;0.10;0.10;;;;;;;6.77;100.00;97433.69;7396304;19;20014;-82
2023/01/15 06:28:06;;;;;;;0.50;0.47;;;;;;;6.73;100.00;97437.97;7393243;19;20014;-84
2023/01/15 06:30:32;;;;;;;0.15;0.10;;;;;;;6.77;100.00;97430.16;7392523;19;20018;-83
2023/01/15 06:32:59;;;;;;;0.28;0.28;;;;;;;6.68;100.00;97436.72;7391987;19;20038;-83
2023/01/15 06:35:26;;;;;;;0.10;0.10;;;;;;;6.52;100.00;97431.25;7393547;19;20724;-83
2023/01/15 06:37:52;;;;;;;0.10;0.00;;;;;;;6.56;100.00;97440.03;7391453;19;20025;-82
2023/01/15 06:40:19;;;;;;;0.10;0.10;;;;;;;6.47;100.00;97445.81;7387444;19;20018;-83
2023/01/15 06:48:24;;;;;;;0.10;0.10;;;;;;;6.69;100.00;97448.53;7394406;19;20837;-83
2023/01/15 06:50:50;;;;;;;0.10;0.00;;;;;;;6.86;100.00;97447.19;7390846;19;20430;-82
2023/01/15 06:53:16;;;;;;;0.63;0.40;;;;;;;6.94;100.00;97452.97;7388730;19;20018;-83
2023/01/15 06:55:42;;;;;;;0.15;0.10;;;;;;;7.02;100.00;97456.69;7391902;19;20363;-83
2023/01/15 06:58:09;;;;;;;0.10;0.10;;;;;;;7.11;100.00;97466.72;7386692;19;20018;-83
2023/01/15 07:00:35;;;;;;;0.10;0.00;;;;;;;7.05;100.00;97494.44;7387974;19;20014;-82
2023/01/15 07:03:02;;;;;;;36.08;1.55;;;;;;;7.00;100.00;97464.75;7389462;19;20517;-83
2023/01/15 07:05:29;;;;;;;0.10;0.10;;;;;;;6.91;100.00;97484.41;7395013;19;20121;-84
2023/01/15 07:07:56;;;;;;;0.13;0.05;;;;;;;6.81;100.00;97480.41;7392353;19;20035;-83
2023/01/15 07:10:23;;;;;;;0.10;0.10;;;;;;;6.73;100.00;97484.97;7394463;19;20022;-84
2023/01/15 07:12:49;;;;;;;0.10;0.10;;;;;;;6.49;100.00;97487.53;7391514;19;20039;-84
2023/01/15 07:15:16;;;;;;;12.98;0.70;;;;;;;5.66;100.00;97501.31;7392064;19;20010;-85
2023/01/15 07:17:42;;;;;;;0.10;0.10;;;;;;;5.86;100.00;97501.88;7391892;19;20382;-84
2023/01/15 07:20:09;;;;;;;0.10;0.10;;;;;;;6.39;100.00;97500.88;7391016;19;20387;-84
2023/01/15 07:22:35;;;;;;;0.45;0.30;;;;;;;6.60;100.00;97515.94;7392318;19;20021;-83
2023/01/15 07:25:01;;;;;;;0.10;0.10;;;;;;;6.51;100.00;97513.44;7394105;19;20034;-84
2023/01/15 07:27:28;;;;;;;0.40;0.35;;;;;;;6.58;100.00;97507.38;7393303;19;20814;-84
2023/01/15 07:29:54;;;;;;;0.52;0.35;;;;;;;6.87;100.00;97511.56;7394231;19;20395;-84
2023/01/15 07:32:20;;;;;;;0.10;0.10;;;;;;;7.39;100.00;97515.16;7393193;19;20029;-84
2023/01/15 07:34:46;;;;;;;0.10;0.10;;;;;;;7.01;100.00;97516.06;7394233;19;20018;-84
2023/01/15 07:37:12;;;;;;;1.27;0.63;;;;;;;6.83;100.00;97519.41;7393513;19;20501;-84
2023/01/15 07:39:38;;;;;;;0.10;0.10;;;;;;;6.21;100.00;97531.03;7394877;19;20089;-84
2023/01/15 07:50:21;;;;;;;0.10;0.10;;;;;;;6.49;100.00;97560.19;7397333;19;20013;-84
2023/01/15 07:52:47;;;;;;;0.10;0.10;;;;;;;6.56;100.00;97550.63;7394177;19;20023;-84
2023/01/15 07:55:14;;;;;;;0.20;0.20;;;;;;;6.67;100.00;97562.41;7391202;19;20011;-84
2023/01/15 07:57:41;;;;;;;0.10;0.10;;;;;;;10.87;100.00;97564.59;7396760;19;20022;-84
2023/01/15 08:00:14;;;;;;;0.10;0.00;;;;;;;8.88;100.00;97568.06;7393575;19;20018;-84
2023/01/15 08:02:40;;;;;;;0.10;0.10;;;;;;;7.31;100.00;97577.88;7390990;19;20048;-83
2023/01/15 08:05:08;;;;;;;0.10;0.10;;;;;;;6.90;100.00;97588.03;7390669;19;20010;-84
2023/01/15 08:07:39;;;;;;;0.10;0.10;;;;;;;6.80;100.00;97590.31;7393771;19;20022;-84
2023/01/15 08:10:06;;;;;;;0.13;0.13;;;;;;;6.80;100.00;97589.53;7389887;19;20043;-83
2023/01/15 08:15:17;;;;;;;0.10;0.00;;;;;;;6.86;100.00;97604.16;7390927;19;20057;-84
2023/01/15 08:17:46;;;;;;;0.40;0.20;;;;;;;6.91;100.00;97606.13;7388314;19;20021;-83
2023/01/15 08:20:14;;;;;;;0.10;0.10;;;;;;;6.80;100.00;97606.91;7390478;19;20014;-83
2023/01/15 08:22:40;;;;;;;0.10;0.10;;;;;;;6.92;100.00;97615.94;7388219;19;20017;-83
2023/01/15 08:25:08;;;;;;;0.43;0.43;;;;;;;6.86;100.00;97615.94;7392244;19;20341;-84
2023/01/15 08:27:36;;;;;;;0.20;0.20;;;;;;;6.91;100.00;97617.19;7390668;19;20021;-83
2023/01/15 08:30:06;;;;;;;0.10;0.00;;;;;;;6.93;100.00;97625.75;7389006;19;20343;-83
2023/01/15 08:32:32;;;;;;;0.32;0.32;;;;;;;7.00;100.00;97636.31;7387114;19;20010;-82
2023/01/15 08:34:59;;;;;;;0.10;0.10;;;;;;;6.33;100.00;97630.03;7385669;19;20018;-83
2023/01/15 08:37:25;;;;;;;0.63;0.20;;;;;;;5.59;100.00;97635.06;7387275;19;20039;-82
2023/01/15 08:39:52;;;;;;;22.13;0.55;;;;;;;5.57;100.00;97643.09;7386156;19;20010;-82
2023/01/15 08:42:19;;;;;;;0.17;0.17;;;;;;;7.52;100.00;97642.75;7387074;19;20015;-82
2023/01/15 08:44:46;;;;;;;0.17;0.17;;;;;;;11.20;100.00;97631.59;7386581;19;20077;-83
2023/01/15 08:47:13;;;;;;;0.10;0.08;;;;;;;14.78;100.00;97633.66;7386797;19;20037;-82
2023/01/15 08:49:39;;;;;;;11.00;0.70;;;;;;;11.75;100.00;97635.41;7385212;19;20357;-82
2023/01/15 08:52:05;;;;;;;0.32;0.32;;;;;;;11.18;100.00;97648.09;7386258;19;20050;-82
2023/01/15 08:54:31;;;;;;;1.27;0.50;;;;;;;11.07;100.00;97656.63;7386555;19;20366;-82
2023/01/15 08:56:58;;;;;;;0.10;0.00;;;;;;;12.36;100.00;97652.88;7394596;19;20025;-84
2023/01/15 08:59:25;;;;;;;0.30;0.30;;;;;;;12.40;100.00;97654.06;7390005;19;20023;-84
2023/01/15 09:01:51;;;;;;;0.10;0.10;;;;;;;13.40;100.00;97657.25;7390635;19;20018;-84
2023/01/15 09:04:20;;;;;;;1.20;0.82;;;;;;;7.44;100.00;97668.69;7390951;19;20025;-84
2023/01/15 09:06:48;;;;;;;1.65;0.75;;;;;;;7.60;100.00;97671.41;7394060;19;20070;-84
2023/01/15 09:09:14;;;;;;;5.45;0.73;;;;;;;8.12;100.00;97670.72;7389644;19;20501;-84
2023/01/15 09:11:41;;;;;;;11.93;0.75;;;;;;;7.96;100.00;97669.53;7389305;19;20035;-84
2023/01/15 09:14:08;;;;;;;20.75;1.60;;;;;;;7.88;100.00;97678.88;7388117;19;20015;-84
2023/01/15 09:16:36;;;;;;;14.27;1.80;;;;;;;7.11;100.00;97683.34;7394103;19;20353;-84
2023/01/15 09:19:03;;;;;;;5.57;1.35;;;;;;;7.61;100.00;97684.00;7390474;19;20018;-84
2023/01/15 09:21:29;;;;;;;0.88;0.47;;;;;;;6.96;100.00;97684.84;7389599;19;20010;-84
2023/01/15 09:23:55;;;;;;;6.10;0.50;;;;;;;6.99;100.00;97690.16;7388991;19;20018;-84
2023/01/15 09:26:39;;;;;;;1.08;0.30;;;;;;;7.01;100.00;97689.66;7390271;19;20026;-84
2023/01/15 09:29:07;;;;;;;6.50;0.63;;;;;;;7.24;100.00;97700.19;7385213;19;20029;-84
2023/01/15 09:31:34;;;;;;;15.70;0.50;;;;;;;7.45;100.00;97701.41;7391353;19;20015;-84
2023/01/15 09:34:00;;;;;;;9.63;0.85;;;;;;;6.80;100.00;97700.94;7390067;19;20033;-84
2023/01/15 09:36:32;;;;;;;0.63;0.20;;;;;;;6.71;100.00;97700.47;7391006;19;20343;-85
2023/01/15 09:39:00;;;;;;;0.10;0.10;;;;;;;6.71;100.00;97714.28;7386252;19;20029;-85
2023/01/15 09:44:46;;;;;;;0.50;0.35;;;;;;;6.28;100.00;97737.81;7392117;19;20014;-84
2023/01/15 09:47:25;;;;;;;0.57;0.38;;;;;;;6.27;100.00;97741.81;7387201;19;20121;-83
2023/01/15 09:50:33;;;;;;;0.10;0.00;;;;;;;6.40;100.00;97744.88;7385993;19;20070;-84
2023/01/15 09:53:21;;;;;;;3.50;0.40;;;;;;;6.80;100.00;97755.50;7387921;19;20022;-91
2023/01/15 09:55:49;;;;;;;0.20;0.10;;;;;;;7.26;100.00;97761.34;7391678;19;20025;-84
2023/01/15 09:58:26;;;;;;;1.85;0.22;;;;;;;7.20;100.00;97766.13;7388440;19;20070;-84
2023/01/15 10:00:52;;;;;;;0.20;0.20;;;;;;;6.98;100.00;97748.75;7384720;19;20010;-83
2023/01/15 10:03:33;;;;;;;0.63;0.63;;;;;;;6.76;100.00;97760.53;7387164;19;20018;-84
2023/01/15 10:06:19;;;;;;;0.20;0.20;;;;;;;7.68;100.00;97754.00;7390332;19;20544;-84
2023/01/15 10:08:48;;;;;;;1.25;0.43;;;;;;;7.28;100.00;97756.06;7387964;19;20038;-85
2023/01/15 10:11:14;;;;;;;2.78;0.73;;;;;;;7.25;100.00;97761.84;7387339;19;20018;-84
2023/01/15 10:13:40;;;;;;;0.10;0.00;;;;;;;6.87;100.00;97755.03;7385299;19;20019;-84
2023/01/15 10:16:08;;;;;;;1.48;0.65;;;;;;;6.82;100.00;97756.53;7389933;19;20022;-85
2023/01/15 10:18:34;;;;;;;0.40;0.40;;;;;;;6.77;100.00;97749.00;7387032;19;20353;-85
2023/01/15 10:21:13;;;;;;;0.32;0.28;;;;;;;6.94;100.00;97760.06;7386581;19;20010;-85
2023/01/15 10:23:48;;;;;;;0.38;0.20;;;;;;;6.90;100.00;97770.63;7385467;19;20015;-86
2023/01/15 10:26:36;;;;;;;0.20;0.20;;;;;;;6.74;100.00;97774.13;7390316;19;20105;-85
2023/01/15 10:29:18;;;;;;;10.43;0.73;;;;;;;6.39;100.00;97782.81;7388242;19;20018;-83
2023/01/15 10:31:48;;;;;;;;;;;;;;;6.37;100.00;97785.34;7393859;19;20018;-83
2023/01/15 10:34:42;;;;;;;0.40;0.22;;;;;;;6.18;100.00;97791.78;7394275;19;19923;-84
2023/01/15 10:37:19;;;;;;;7.88;0.63;;;;;;;6.28;100.00;97787.56;7394724;19;20095;-84
2023/01/15 10:39:48;;;;;;;1.70;0.28;;;;;;;6.01;100.00;97797.25;7393460;19;20025;-83
2023/01/15 10:42:36;;;;;;;0.32;0.32;;;;;;;6.11;100.00;97802.06;7392475;19;20017;-84
2023/01/15 10:45:11;;;;;;;2.55;0.65;;;;;;;6.50;100.00;97798.69;7390804;19;20039;-84
2023/01/15 10:47:39;;;;;;;0.65;0.65;;;;;;;6.07;100.00;97809.84;7391543;19;20017;-84
2023/01/15 10:50:17;;;;;;;0.98;0.90;;;;;;;6.18;100.00;97811.13;7392411;19;20345;-84
2023/01/15 10:52:56;;;;;;;3.80;0.28;;;;;;;5.97;100.00;97814.06;7391859;19;20043;-84
2023/01/15 10:55:33;;;;;;;0.10;0.00;;;;;;;5.81;100.00;97817.44;7390891;19;20017;-85
2023/01/15 10:58:28;;;;;;;4.68;0.30;;;;;;;6.72;100.00;97816.13;7390998;19;20029;-84
2023/01/15 11:01:04;;;;;;;0.55;0.10;;;;;;;7.08;100.00;97819.94;7389568;19;20030;-83
2023/01/15 11:03:42;;;;;;;1.95;0.45;;;;;;;7.64;100.00;97820.75;7392926;19;20007;-82
2023/01/15 11:06:14;;;;;;;0.55;0.45;;;;;;;7.58;100.00;97823.50;7394000;19;20044;-83
2023/01/15 11:08:45;;;;;;;0.20;0.13;;;;;;;7.36;100.00;97828.31;7391917;19;20028;-83
2023/01/15 11:19:40;;;;;;;7.13;0.40;;;;;;;6.49;100.00;97841.44;7393529;19;20029;-83
2023/01/15 11:22:13;;;;;;;0.10;0.10;;;;;;;7.04;100.00;97841.59;7393343;19;20010;-84
2023/01/15 11:24:53;;;;;;;0.17;0.13;;;;;;;7.22;100.00;97841.13;7391484;19;20014;-84
2023/01/15 11:27:25;;;;;;;0.50;0.30;;;;;;;6.91;100.00;97837.81;7392476;19;20476;-84
2023/01/15 11:29:56;;;;;;;0.20;0.20;;;;;;;7.00;100.00;97832.78;7391187;19;20019;-84
2023/01/15 11:32:32;;;;;;;0.30;0.30;;;;;;;6.98;100.00;97827.00;7389066;19;20032;-83
2023/01/15 11:35:18;;;;;;;0.32;0.32;;;;;;;7.06;100.00;97839.06;7389471;19;20019;-84
2023/01/15 11:37:44;;;;;;;0.73;0.47;;;;;;;7.05;100.00;97826.50;7392925;19;20018;-85
2023/01/15 11:40:23;;;;;;;0.43;0.40;;;;;;;7.03;100.00;97829.03;7391494;19;20371;-85
2023/01/15 11:51:40;;;;;;;0.55;0.32;;;;;;;7.17;100.00;97830.78;7394735;19;20047;-85
2023/01/15 11:54:11;;;;;;;0.63;0.35;;;;;;;7.05;100.00;97831.28;7392835;19;20035;-86
2023/01/15 11:56:42;;;;;;;0.10;0.10;;;;;;;6.77;100.00;97839.53;7395278;19;20603;-85
2023/01/15 11:59:16;;;;;;;0.75;0.30;;;;;;;6.60;100.00;97839.47;7392987;19;20018;-85
2023/01/15 12:02:29;;;;;;;0.10;0.10;;;;;;;6.47;100.00;97846.72;7389729;19;20473;-85
2023/01/15 12:04:59;;;;;;;1.80;0.15;;;;;;;6.58;100.00;97844.72;7386930;19;20010;-84
2023/01/15 12:07:25;;;;;;;0.57;0.30;;;;;;;6.30;100.00;97837.59;7393014;19;20019;-85
2023/01/15 12:10:06;;;;;;;8.48;1.05;;;;;;;6.27;100.00;97839.34;7395114;19;20078;-86
2023/01/15 12:13:21;;;;;;;11.90;0.60;;;;;;;6.07;100.00;97840.22;7392682;19;20022;-86
2023/01/15 12:16:14;;;;;;;0.30;0.30;;;;;;;6.07;100.00;97840.22;7394020;19;20025;-85
2023/01/15 12:18:40;;;;;;;2.00;0.88;;;;;;;6.20;100.00;97839.03;7391972;19;20026;-86
2023/01/15 12:21:32;;;;;;;5.47;0.63;;;;;;;6.64;100.00;97839.22;7390632;19;20018;-85
2023/01/15 12:24:17;;;;;;;1.77;0.47;;;;;;;6.22;100.00;97842.81;7392067;19;20025;-84
2023/01/15 12:26:49;;;;;;;8.77;1.00;;;;;;;6.39;100.00;97848.44;7395415;19;20488;-85
2023/01/15 12:29:27;;;;;;;4.10;1.02;;;;;;;6.29;100.00;97842.34;7395567;19;20372;-84
2023/01/15 12:32:00;;;;;;;2.58;0.50;;;;;;;6.25;100.00;97841.84;7391076;19;20477;-84
2023/01/15 12:34:41;;;;;;;0.70;0.55;;;;;;;6.19;100.00;97846.59;7393933;19;20026;-86
2023/01/15 12:37:20;;;;;;;5.68;1.75;;;;;;;6.19;100.00;97849.34;7390321;19;20018;-84
2023/01/15 12:39:57;;;;;;;6.32;1.23;;;;;;;6.29;100.00;97836.06;7390804;19;20029;-84